createdAt,value
2022-08-02T00:01:46.758Z,90.63
2022-08-02T00:08:48.444Z,91.22
2022-08-02T00:15:50.046Z,92.68
2022-08-02T00:22:51.637Z,92.15
2022-08-02T00:29:53.636Z,92.50
2022-08-02T00:36:56.514Z,84.88
2022-08-02T00:43:58.144Z,88.20
2022-08-02T00:50:59.744Z,91.75
2022-08-02T00:58:01.468Z,87.88
2022-08-02T01:05:03.634Z,93.43
2022-08-02T01:12:05.571Z,91.53
2022-08-02T01:19:31.744Z,89.60
2022-08-02T01:26:54.786Z,93.07
2022-08-02T01:34:19.150Z,92.22
2022-08-02T01:41:22.666Z,90.72
2022-08-02T01:48:24.855Z,91.53
2022-08-02T01:55:35.299Z,91.85
2022-08-02T02:02:55.579Z,84.95
2022-08-02T02:09:57.867Z,95.75
2022-08-02T02:16:59.539Z,95.28
2022-08-02T02:24:01.151Z,90.95
2022-08-02T02:31:08.471Z,95.53
2022-08-02T02:38:12.171Z,94.72
2022-08-02T02:45:13.820Z,94.82
2022-08-02T02:52:16.476Z,88.03
2022-08-02T02:59:18.083Z,94.03
2022-08-02T03:06:20.006Z,92.82
2022-08-02T03:13:21.644Z,93.75
2022-08-02T03:20:23.253Z,94.18
2022-08-02T03:27:24.832Z,94.57
2022-08-02T03:34:26.442Z,93.43
2022-08-02T03:41:28.125Z,92.40
2022-08-02T03:48:34.919Z,90.35
2022-08-02T03:55:36.906Z,97.28
2022-08-02T04:02:38.557Z,94.65
2022-08-02T04:09:40.153Z,89.07
2022-08-02T04:16:48.449Z,97.63
2022-08-02T04:23:50.080Z,98.03
2022-08-02T04:30:53.371Z,93.53
2022-08-02T04:38:08.775Z,94.45
2022-08-02T04:45:11.775Z,99.43
2022-08-02T04:52:18.344Z,96.22
2022-08-02T04:59:19.968Z,94.10
2022-08-02T05:06:21.637Z,89.38
2022-08-02T05:13:23.764Z,89.47
2022-08-02T05:20:25.380Z,92.07
2022-08-02T05:27:27.037Z,83.20
2022-08-02T05:34:28.704Z,84.43
2022-08-02T05:41:30.380Z,91.93
2022-08-02T05:48:32.474Z,89.70
2022-08-02T05:55:34.816Z,89.50
2022-08-02T06:03:02.877Z,84.40
2022-08-02T06:10:05.515Z,90.05
2022-08-02T06:17:07.358Z,85.75
2022-08-02T06:24:10.454Z,79.78
2022-08-02T06:31:12.951Z,84.53
2022-08-02T06:38:25.141Z,93.50
2022-08-02T06:45:26.871Z,86.97
2022-08-02T06:52:30.806Z,73.00
2022-08-02T06:59:32.505Z,91.20
2022-08-02T07:06:34.079Z,92.30
2022-08-02T07:13:39.644Z,73.53
2022-08-02T07:20:42.276Z,72.88
2022-08-02T07:27:43.918Z,63.85
2022-08-02T07:34:50.394Z,73.57
2022-08-02T07:41:54.192Z,66.63
2022-08-02T07:48:55.908Z,67.10
2022-08-02T07:55:57.617Z,67.95
2022-08-02T08:02:59.357Z,47.28
2022-08-02T08:10:02.497Z,32.95
2022-08-02T08:17:04.489Z,15.60
2022-08-02T08:24:06.370Z,14.63
2022-08-02T08:31:08.048Z,12.40
2022-08-02T08:38:09.735Z,11.75
2022-08-02T08:45:11.445Z,6.53
2022-08-02T08:52:13.570Z,9.30
2022-08-02T08:59:15.555Z,9.32
2022-08-02T09:06:17.168Z,8.23
2022-08-02T09:13:38.893Z,7.85
2022-08-02T09:21:10.737Z,8.77
2022-08-02T09:28:12.396Z,8.13
2022-08-02T09:35:15.217Z,9.23
2022-08-02T09:42:16.876Z,7.35
2022-08-02T09:49:19.234Z,7.65
2022-08-02T09:56:35.098Z,8.02
2022-08-02T10:03:37.588Z,8.07
2022-08-02T10:10:42.331Z,8.43
2022-08-02T10:17:43.935Z,8.35
2022-08-02T10:24:47.979Z,8.73
2022-08-02T10:31:55.652Z,10.05
2022-08-02T10:38:58.690Z,8.68
2022-08-02T10:46:32.615Z,22.48
2022-08-02T10:53:34.337Z,12.80
2022-08-02T11:00:35.996Z,18.40
2022-08-02T11:07:49.348Z,25.98
2022-08-02T11:15:04.107Z,34.45
2022-08-02T11:22:16.202Z,32.10
2022-08-02T11:29:21.794Z,18.65
2022-08-02T11:36:23.509Z,14.73
2022-08-02T11:43:27.329Z,13.10
2022-08-02T11:50:29.733Z,19.17
2022-08-02T11:58:03.299Z,10.40
2022-08-02T12:05:05.408Z,12.35
2022-08-02T12:12:11.110Z,18.10
2022-08-02T12:19:20.274Z,17.08
2022-08-02T12:26:21.860Z,12.90
2022-08-02T12:33:24.532Z,9.10
2022-08-02T12:40:26.837Z,7.80
2022-08-02T12:47:35.578Z,9.55
2022-08-02T12:54:41.105Z,8.68
2022-08-02T13:01:42.789Z,10.32
2022-08-02T13:08:44.453Z,6.63
2022-08-02T13:15:49.817Z,8.70
2022-08-02T13:22:53.563Z,6.83
2022-08-02T13:29:55.555Z,7.82
2022-08-02T13:36:57.163Z,8.50
2022-08-02T13:44:08.902Z,8.20
2022-08-02T13:51:14.711Z,11.48
2022-08-02T13:58:16.886Z,11.45
2022-08-02T14:05:18.525Z,12.30
2022-08-02T14:12:40.128Z,11.05
2022-08-02T14:19:41.822Z,11.27
2022-08-02T14:26:43.993Z,10.45
2022-08-02T14:33:47.677Z,9.35
2022-08-02T14:40:49.334Z,12.30
2022-08-02T14:47:51.027Z,11.48
2022-08-02T14:54:52.975Z,14.07
2022-08-02T15:01:54.749Z,17.38
2022-08-02T15:08:56.480Z,9.05
2022-08-02T15:15:58.145Z,9.68
2022-08-02T15:23:00.498Z,15.60
2022-08-02T15:30:02.184Z,11.35
2022-08-02T15:37:03.813Z,19.45
2022-08-02T15:44:08.161Z,15.82
2022-08-02T15:51:09.775Z,15.80
2022-08-02T15:58:16.848Z,15.68
2022-08-02T16:05:20.748Z,19.25
2022-08-02T16:12:22.374Z,26.42
2022-08-02T16:19:49.089Z,26.67
2022-08-02T16:26:51.490Z,34.45
2022-08-02T16:33:56.205Z,35.03
2022-08-02T16:41:01.647Z,33.42
2022-08-02T16:48:05.639Z,42.58
2022-08-02T16:55:08.503Z,37.35
2022-08-02T17:02:17.933Z,38.78
2022-08-02T17:10:03.027Z,16.40
2022-08-02T17:16:42.407Z,13.90
2022-08-02T17:24:04.194Z,14.20
2022-08-02T17:31:07.662Z,18.33
2022-08-02T17:38:09.256Z,19.85
2022-08-02T17:45:16.753Z,22.42
2022-08-02T17:52:50.720Z,27.20
2022-08-02T18:00:04.416Z,68.82
2022-08-02T18:07:09.423Z,63.03
2022-08-02T18:14:17.634Z,67.25
2022-08-02T18:21:22.464Z,66.30
2022-08-02T18:28:26.620Z,75.05
2022-08-02T18:35:29.544Z,73.28
2022-08-02T18:42:31.241Z,77.10
2022-08-02T18:49:46.223Z,74.35
2022-08-02T18:56:50.169Z,71.15
2022-08-02T19:03:52.817Z,77.00
2022-08-02T19:10:56.286Z,65.35
2022-08-02T19:18:01.228Z,76.93
2022-08-02T19:25:05.082Z,84.72
2022-08-02T19:32:41.682Z,77.57
2022-08-02T19:39:39.072Z,69.55
2022-08-02T19:46:41.694Z,81.88
2022-08-02T19:53:47.798Z,54.72
2022-08-02T20:00:50.670Z,83.20
2022-08-02T20:07:56.391Z,72.25
2022-08-02T20:14:58.350Z,65.53
2022-08-02T20:22:02.030Z,53.53
2022-08-02T20:29:04.208Z,57.17
2022-08-02T20:36:06.212Z,56.85
2022-08-02T20:43:09.153Z,61.38
2022-08-02T20:50:31.533Z,92.60
2022-08-02T20:57:49.043Z,82.00
2022-08-02T21:04:55.199Z,68.22
2022-08-02T21:11:57.339Z,63.38
2022-08-02T21:19:00.634Z,67.65
2022-08-02T21:26:02.227Z,65.55
2022-08-02T21:33:04.570Z,67.03
2022-08-02T21:40:19.725Z,62.08
2022-08-02T21:47:26.157Z,69.97
2022-08-02T21:54:28.409Z,78.07
2022-08-02T22:01:30.138Z,63.45
2022-08-02T22:08:32.050Z,72.63
2022-08-02T22:15:35.996Z,54.90
2022-08-02T22:22:42.370Z,48.10
2022-08-02T22:29:44.056Z,45.58
2022-08-02T22:36:48.331Z,44.15
2022-08-02T22:43:49.960Z,47.63
2022-08-02T22:50:51.556Z,56.70
2022-08-02T22:57:57.197Z,48.67
2022-08-02T23:05:01.246Z,46.47
2022-08-02T23:12:03.155Z,45.85
2022-08-02T23:19:24.012Z,43.92
2022-08-02T23:26:26.020Z,43.90
2022-08-02T23:33:32.282Z,46.50
2022-08-02T23:40:40.653Z,47.78
2022-08-02T23:47:42.630Z,48.50
2022-08-02T23:54:44.198Z,50.45
